createdAt,value
2023-03-15T00:00:32.755Z,100.00
2023-03-15T00:05:38.848Z,100.00
2023-03-15T00:10:43.999Z,100.00
2023-03-15T00:15:54.126Z,100.00
2023-03-15T00:20:56.038Z,100.00
2023-03-15T00:26:02.600Z,100.00
2023-03-15T00:31:15.309Z,100.00
2023-03-15T00:36:17.111Z,100.00
2023-03-15T00:41:20.078Z,100.00
2023-03-15T00:46:21.998Z,100.00
2023-03-15T00:51:24.440Z,100.00
2023-03-15T00:56:30.284Z,100.00
2023-03-15T01:01:33.090Z,100.00
2023-03-15T01:06:37.007Z,100.00
2023-03-15T01:11:41.018Z,100.00
2023-03-15T01:16:45.114Z,100.00
2023-03-15T01:21:47.890Z,100.00
2023-03-15T01:26:52.002Z,100.00
2023-03-15T01:31:56.003Z,100.00
2023-03-15T01:37:00.925Z,100.00
2023-03-15T01:42:08.842Z,100.00
2023-03-15T01:47:15.479Z,100.00
2023-03-15T01:52:23.402Z,100.00
2023-03-15T01:57:39.165Z,100.00
2023-03-15T02:02:58.578Z,100.00
2023-03-15T02:08:07.401Z,100.00
2023-03-15T02:13:22.734Z,100.00
2023-03-15T02:18:27.110Z,100.00
2023-03-15T02:23:29.404Z,100.00
2023-03-15T02:28:32.409Z,100.00
2023-03-15T02:33:39.093Z,100.00
2023-03-15T02:38:45.566Z,100.00
2023-03-15T02:43:53.191Z,100.00
2023-03-15T02:49:00.065Z,100.00
2023-03-15T02:54:05.717Z,100.00
2023-03-15T02:59:09.668Z,100.00
2023-03-15T03:04:14.213Z,100.00
2023-03-15T03:09:19.221Z,100.00
2023-03-15T03:14:26.081Z,100.00
2023-03-15T03:19:29.971Z,100.00
2023-03-15T03:24:32.389Z,100.00
2023-03-15T03:29:34.230Z,100.00
2023-03-15T03:34:39.811Z,100.00
2023-03-15T03:39:42.251Z,100.00
2023-03-15T03:44:43.991Z,100.00
2023-03-15T03:49:48.373Z,100.00
2023-03-15T03:54:50.897Z,100.00
2023-03-15T03:59:58.656Z,100.00
2023-03-15T04:05:00.979Z,100.00
2023-03-15T04:10:05.878Z,100.00
2023-03-15T04:15:10.044Z,100.00
2023-03-15T04:20:12.940Z,100.00
2023-03-15T04:25:26.726Z,100.00
2023-03-15T04:30:39.463Z,100.00
2023-03-15T04:35:54.535Z,100.00
2023-03-15T04:41:16.218Z,100.00
2023-03-15T04:46:35.021Z,100.00
2023-03-15T04:51:59.673Z,100.00
2023-03-15T04:57:06.247Z,100.00
2023-03-15T05:02:18.983Z,100.00
2023-03-15T05:07:46.072Z,100.00
2023-03-15T05:13:08.077Z,100.00
2023-03-15T05:18:32.672Z,100.00
2023-03-15T05:23:55.363Z,100.00
2023-03-15T05:29:03.701Z,100.00
2023-03-15T05:34:25.787Z,100.00
2023-03-15T05:39:49.631Z,100.00
2023-03-15T05:45:10.113Z,100.00
2023-03-15T05:50:23.362Z,100.00
2023-03-15T05:55:52.273Z,100.00
2023-03-15T06:01:15.024Z,100.00
2023-03-15T06:06:33.776Z,100.00
2023-03-15T06:11:41.213Z,100.00
2023-03-15T06:16:49.055Z,100.00
2023-03-15T06:21:51.848Z,100.00
2023-03-15T06:27:04.321Z,100.00
2023-03-15T06:32:10.088Z,100.00
2023-03-15T06:37:29.088Z,100.00
2023-03-15T06:42:36.904Z,100.00
2023-03-15T06:47:39.028Z,100.00
2023-03-15T06:52:45.407Z,100.00
2023-03-15T06:57:48.168Z,100.00
2023-03-15T07:02:49.931Z,100.00
2023-03-15T07:07:56.420Z,100.00
2023-03-15T07:12:58.078Z,100.00
2023-03-15T07:18:00.619Z,100.00
2023-03-15T07:23:09.407Z,100.00
2023-03-15T07:28:18.483Z,100.00
2023-03-15T07:33:22.561Z,100.00
2023-03-15T07:38:30.886Z,100.00
2023-03-15T07:43:36.105Z,100.00
2023-03-15T07:48:49.627Z,100.00
2023-03-15T07:53:53.883Z,100.00
2023-03-15T07:58:55.604Z,100.00
2023-03-15T08:04:02.670Z,100.00
2023-03-15T08:09:06.925Z,100.00
2023-03-15T08:14:08.653Z,100.00
2023-03-15T08:19:10.416Z,100.00
2023-03-15T08:24:12.795Z,100.00
2023-03-15T08:29:15.409Z,100.00
2023-03-15T08:34:19.688Z,100.00
2023-03-15T08:39:24.043Z,100.00
2023-03-15T08:44:25.755Z,100.00
2023-03-15T08:49:29.956Z,100.00
2023-03-15T08:54:41.030Z,100.00
2023-03-15T08:59:42.903Z,100.00
2023-03-15T09:04:47.363Z,100.00
2023-03-15T09:09:49.162Z,100.00
2023-03-15T09:14:53.121Z,100.00
2023-03-15T09:19:54.788Z,100.00
2023-03-15T09:24:57.724Z,100.00
2023-03-15T09:29:59.452Z,100.00
2023-03-15T09:35:04.411Z,100.00
2023-03-15T09:40:31.666Z,100.00
2023-03-15T09:45:42.811Z,100.00
2023-03-15T09:50:50.742Z,100.00
2023-03-15T09:55:55.034Z,100.00
2023-03-15T10:01:16.168Z,100.00
2023-03-15T10:06:29.983Z,100.00
2023-03-15T10:11:59.640Z,100.00
2023-03-15T10:17:05.373Z,100.00
2023-03-15T10:22:16.223Z,100.00
2023-03-15T10:27:30.911Z,100.00
2023-03-15T10:32:38.497Z,100.00
2023-03-15T10:37:42.782Z,100.00
2023-03-15T10:42:52.149Z,100.00
2023-03-15T10:48:00.556Z,100.00
2023-03-15T10:53:16.481Z,100.00
2023-03-15T10:58:18.153Z,100.00
2023-03-15T11:03:24.092Z,100.00
2023-03-15T11:08:39.875Z,100.00
2023-03-15T11:13:59.471Z,100.00
2023-03-15T11:19:01.669Z,100.00
2023-03-15T11:24:08.285Z,100.00
2023-03-15T11:29:29.961Z,100.00
2023-03-15T11:34:41.844Z,100.00
2023-03-15T11:39:53.725Z,100.00
2023-03-15T11:45:07.308Z,100.00
2023-03-15T11:50:14.587Z,100.00
2023-03-15T11:55:20.234Z,100.00
2023-03-15T12:00:36.384Z,100.00
2023-03-15T12:05:42.729Z,100.00
2023-03-15T12:10:50.739Z,100.00
2023-03-15T12:15:53.335Z,100.00
2023-03-15T12:21:10.469Z,100.00
2023-03-15T12:26:31.012Z,90.71
2023-03-15T12:32:01.934Z,84.74
2023-03-15T12:37:12.659Z,86.42
2023-03-15T12:42:38.772Z,84.36
2023-03-15T12:48:06.507Z,80.80
2023-03-15T12:53:19.826Z,75.43
2023-03-15T12:58:27.089Z,75.22
2023-03-15T13:03:34.726Z,69.42
2023-03-15T13:09:00.196Z,67.92
2023-03-15T13:14:29.114Z,64.69
2023-03-15T13:19:45.071Z,59.35
2023-03-15T13:24:57.827Z,57.59
2023-03-15T13:29:59.542Z,58.24
2023-03-15T13:35:03.885Z,57.32
2023-03-15T13:40:13.908Z,54.87
2023-03-15T13:45:16.928Z,49.87
2023-03-15T13:50:20.678Z,44.59
2023-03-15T13:55:25.294Z,44.02
2023-03-15T14:00:27.282Z,42.22
2023-03-15T14:05:42.351Z,43.04
2023-03-15T14:10:46.301Z,40.36
2023-03-15T14:15:48.230Z,43.08
2023-03-15T14:21:00.402Z,40.96
2023-03-15T14:26:28.231Z,38.24
2023-03-15T14:31:39.668Z,34.04
2023-03-15T14:36:45.342Z,35.36
2023-03-15T14:41:49.288Z,37.26
2023-03-15T14:46:51.297Z,34.78
2023-03-15T14:52:00.309Z,32.63
2023-03-15T14:57:05.084Z,36.33
2023-03-15T15:02:13.898Z,35.93
2023-03-15T15:07:20.400Z,34.38
2023-03-15T15:12:24.373Z,34.15
2023-03-15T15:17:28.849Z,33.27
2023-03-15T15:22:35.414Z,30.80
2023-03-15T15:27:39.500Z,31.73
2023-03-15T15:32:41.577Z,30.46
2023-03-15T15:37:47.783Z,31.14
2023-03-15T15:42:49.521Z,31.91
2023-03-15T15:47:56.718Z,33.71
2023-03-15T15:52:58.653Z,37.82
2023-03-15T15:58:03.177Z,38.88
2023-03-15T16:03:16.369Z,40.85
2023-03-15T16:08:23.177Z,43.82
2023-03-15T16:13:24.937Z,44.75
2023-03-15T16:18:29.820Z,46.33
2023-03-15T16:23:31.710Z,45.95
2023-03-15T16:28:33.428Z,48.01
2023-03-15T16:33:37.442Z,48.95
2023-03-15T16:38:39.216Z,51.10
2023-03-15T16:43:43.950Z,52.37
2023-03-15T16:48:45.845Z,52.59
2023-03-15T16:53:47.558Z,54.61
2023-03-15T16:59:00.282Z,56.44
2023-03-15T17:04:05.350Z,57.21
2023-03-15T17:09:21.668Z,59.37
2023-03-15T17:14:30.637Z,59.67
2023-03-15T17:19:35.020Z,62.97
2023-03-15T17:24:39.024Z,61.38
2023-03-15T17:29:46.585Z,62.53
2023-03-15T17:34:50.530Z,62.78
2023-03-15T17:39:54.936Z,63.78
2023-03-15T17:45:00.962Z,64.53
2023-03-15T17:50:08.974Z,65.30
2023-03-15T17:55:21.272Z,66.33
2023-03-15T18:00:24.273Z,67.62
2023-03-15T18:05:30.073Z,69.45
2023-03-15T18:10:35.870Z,70.44
2023-03-15T18:15:40.111Z,70.62
2023-03-15T18:20:49.484Z,72.12
2023-03-15T18:25:52.227Z,72.64
2023-03-15T18:30:56.153Z,73.79
2023-03-15T18:35:58.147Z,74.81
2023-03-15T18:41:02.324Z,75.54
2023-03-15T18:46:04.077Z,76.04
2023-03-15T18:51:08.812Z,77.21
2023-03-15T18:56:19.424Z,77.83
2023-03-15T19:01:24.464Z,78.21
2023-03-15T19:06:28.827Z,78.64
2023-03-15T19:11:31.703Z,79.43
2023-03-15T19:16:33.693Z,80.06
2023-03-15T19:21:38.914Z,80.67
2023-03-15T19:26:40.702Z,81.07
2023-03-15T19:31:42.469Z,81.95
2023-03-15T19:36:49.379Z,82.72
2023-03-15T19:41:53.925Z,83.34
2023-03-15T19:47:00.523Z,83.48
2023-03-15T19:52:02.825Z,83.93
2023-03-15T19:57:09.912Z,84.79
2023-03-15T20:02:12.129Z,84.89
2023-03-15T20:07:13.833Z,85.58
2023-03-15T20:12:15.655Z,86.33
2023-03-15T20:17:20.617Z,86.07
2023-03-15T20:22:24.814Z,86.61
2023-03-15T20:27:26.737Z,87.10
2023-03-15T20:32:28.728Z,87.07
2023-03-15T20:37:31.091Z,87.72
2023-03-15T20:42:40.310Z,88.30
2023-03-15T20:47:42.186Z,88.38
2023-03-15T20:52:47.235Z,88.89
2023-03-15T20:57:53.388Z,89.60
2023-03-15T21:02:55.282Z,89.73
2023-03-15T21:07:59.457Z,89.62
2023-03-15T21:13:08.826Z,90.40
2023-03-15T21:18:13.006Z,91.18
2023-03-15T21:23:14.720Z,91.00
2023-03-15T21:28:18.934Z,91.89
2023-03-15T21:33:24.227Z,92.07
2023-03-15T21:38:32.695Z,91.66
2023-03-15T21:43:39.600Z,92.23
2023-03-15T21:48:44.118Z,92.09
2023-03-15T21:53:46.321Z,92.66
2023-03-15T21:58:50.566Z,93.28
2023-03-15T22:03:55.233Z,93.43
2023-03-15T22:08:59.054Z,93.69
2023-03-15T22:14:00.958Z,94.25
2023-03-15T22:19:05.441Z,94.96
2023-03-15T22:24:10.650Z,95.68
2023-03-15T22:29:14.845Z,96.28
2023-03-15T22:34:21.793Z,95.30
2023-03-15T22:39:26.126Z,95.71
2023-03-15T22:44:30.356Z,96.15
2023-03-15T22:49:32.165Z,96.61
2023-03-15T22:54:36.360Z,96.96
2023-03-15T22:59:38.897Z,97.30
2023-03-15T23:04:46.013Z,97.60
2023-03-15T23:09:47.709Z,97.60
2023-03-15T23:14:49.742Z,97.60
2023-03-15T23:19:54.592Z,98.88
2023-03-15T23:24:58.239Z,98.89
2023-03-15T23:30:00.220Z,99.24
2023-03-15T23:35:03.347Z,98.57
2023-03-15T23:40:13.873Z,99.17
2023-03-15T23:45:17.738Z,99.12
2023-03-15T23:50:26.186Z,99.83
2023-03-15T23:55:33.247Z,99.49
